createdAt,value
2022-10-17T00:01:16.210Z,85.71
2022-10-17T00:06:18.869Z,85.81
2022-10-17T00:11:23.036Z,85.90
2022-10-17T00:16:32.431Z,85.89
2022-10-17T00:21:35.106Z,86.08
2022-10-17T00:26:37.777Z,86.28
2022-10-17T00:31:40.913Z,86.26
2022-10-17T00:36:43.651Z,86.44
2022-10-17T00:41:46.315Z,86.63
2022-10-17T00:46:48.952Z,86.67
2022-10-17T00:52:00.175Z,86.69
2022-10-17T00:57:02.957Z,86.56
2022-10-17T01:02:14.402Z,86.72
2022-10-17T01:07:17.216Z,86.61
2022-10-17T01:12:46.389Z,86.63
2022-10-17T01:18:21.483Z,86.77
2022-10-17T01:24:08.483Z,86.61
2022-10-17T01:29:37.936Z,86.80
2022-10-17T01:35:02.618Z,87.00
2022-10-17T01:40:26.011Z,87.45
2022-10-17T01:45:37.232Z,87.71
2022-10-17T01:50:45.716Z,87.91
2022-10-17T01:55:48.623Z,88.18
2022-10-17T02:00:51.448Z,88.39
2022-10-17T02:05:54.656Z,88.42
2022-10-17T02:11:01.814Z,88.33
2022-10-17T02:16:42.722Z,88.49
2022-10-17T02:21:55.116Z,88.30
2022-10-17T02:27:13.850Z,88.12
2022-10-17T02:37:30.666Z,88.07
2022-10-17T02:42:33.729Z,87.90
2022-10-17T02:47:43.650Z,87.59
2022-10-17T02:53:03.722Z,87.94
2022-10-17T02:58:14.928Z,88.30
2022-10-17T03:03:24.323Z,88.13
2022-10-17T03:08:27.182Z,88.14
2022-10-17T03:13:30.202Z,87.97
2022-10-17T03:18:33.459Z,88.28
2022-10-17T03:23:36.198Z,88.12
2022-10-17T03:28:38.989Z,88.21
2022-10-17T03:33:41.777Z,88.22
2022-10-17T03:38:44.617Z,88.60
2022-10-17T03:43:47.387Z,88.62
2022-10-17T03:48:50.241Z,88.68
2022-10-17T03:53:52.916Z,88.83
2022-10-17T03:58:56.036Z,88.70
2022-10-17T04:03:58.653Z,88.80
2022-10-17T04:09:01.652Z,89.17
2022-10-17T04:14:04.534Z,88.97
2022-10-17T04:19:07.251Z,89.20
2022-10-17T04:24:11.574Z,89.02
2022-10-17T04:29:15.229Z,88.86
2022-10-17T04:34:17.979Z,89.12
2022-10-17T04:39:20.757Z,89.36
2022-10-17T04:44:23.925Z,89.45
2022-10-17T04:49:26.616Z,89.80
2022-10-17T04:54:29.252Z,89.93
2022-10-17T04:59:31.981Z,89.84
2022-10-17T05:04:34.731Z,89.92
2022-10-17T05:09:37.443Z,89.90
2022-10-17T05:14:40.139Z,89.98
2022-10-17T05:19:42.849Z,89.89
2022-10-17T05:24:45.484Z,89.88
2022-10-17T05:29:48.923Z,90.27
2022-10-17T05:34:51.630Z,90.40
2022-10-17T05:39:54.389Z,90.07
2022-10-17T05:45:03.387Z,89.85
2022-10-17T05:50:07.694Z,89.84
2022-10-17T05:55:11.467Z,89.99
2022-10-17T06:00:14.328Z,90.25
2022-10-17T06:05:18.505Z,90.23
2022-10-17T06:10:21.281Z,90.57
2022-10-17T06:15:26.482Z,90.42
2022-10-17T06:20:29.156Z,90.26
2022-10-17T06:25:32.560Z,90.43
2022-10-17T06:30:35.239Z,90.10
2022-10-17T06:35:38.306Z,90.02
2022-10-17T06:40:41.074Z,90.04
2022-10-17T06:45:45.724Z,90.03
2022-10-17T06:50:48.536Z,90.22
2022-10-17T06:56:01.489Z,90.20
2022-10-17T07:01:10.654Z,90.30
2022-10-17T07:06:13.442Z,90.16
2022-10-17T07:11:19.181Z,90.14
2022-10-17T07:16:22.517Z,90.21
2022-10-17T07:21:25.386Z,90.15
2022-10-17T07:26:28.161Z,90.21
2022-10-17T07:31:31.626Z,89.93
2022-10-17T07:36:34.334Z,89.99
2022-10-17T07:41:37.792Z,89.79
2022-10-17T07:46:40.586Z,89.29
2022-10-17T07:51:43.434Z,89.16
2022-10-17T07:56:50.603Z,89.18
2022-10-17T08:01:56.609Z,88.82
2022-10-17T08:07:18.364Z,88.43
2022-10-17T08:12:24.311Z,88.29
2022-10-17T08:17:27.185Z,88.10
2022-10-17T08:22:30.289Z,87.44
2022-10-17T08:27:35.238Z,87.25
2022-10-17T08:32:38.004Z,87.12
2022-10-17T08:37:41.839Z,86.45
2022-10-17T08:43:13.010Z,86.02
2022-10-17T08:48:21.853Z,85.72
2022-10-17T08:53:45.367Z,85.57
2022-10-17T08:58:48.052Z,85.15
2022-10-17T09:04:41.985Z,84.72
2022-10-17T09:10:10.351Z,84.52
2022-10-17T09:15:31.413Z,83.89
2022-10-17T09:20:39.108Z,82.62
2022-10-17T09:25:45.121Z,82.37
2022-10-17T09:31:02.343Z,80.99
2022-10-17T09:36:32.902Z,79.40
2022-10-17T09:41:46.528Z,78.58
2022-10-17T09:47:28.469Z,78.59
2022-10-17T09:52:36.764Z,78.08
2022-10-17T09:57:58.558Z,77.90
2022-10-17T10:03:20.459Z,76.77
2022-10-17T10:08:23.634Z,75.01
2022-10-17T10:13:27.045Z,74.75
2022-10-17T10:18:35.868Z,74.57
2022-10-17T10:23:41.463Z,74.63
2022-10-17T10:29:00.110Z,74.09
2022-10-17T10:34:20.500Z,73.51
2022-10-17T10:39:42.712Z,73.03
2022-10-17T10:44:45.377Z,72.90
2022-10-17T10:49:48.224Z,72.08
2022-10-17T10:55:01.207Z,71.22
2022-10-17T11:00:17.481Z,69.84
2022-10-17T11:05:43.171Z,68.50
2022-10-17T11:11:18.048Z,67.89
2022-10-17T11:16:55.974Z,66.53
2022-10-17T11:22:09.581Z,64.51
2022-10-17T11:27:12.282Z,64.23
2022-10-17T11:32:47.854Z,64.02
2022-10-17T11:38:24.306Z,64.89
2022-10-17T11:43:34.268Z,64.90
2022-10-17T11:48:52.782Z,63.06
2022-10-17T11:54:07.393Z,63.63
2022-10-17T11:59:42.574Z,63.67
2022-10-17T12:05:18.533Z,63.73
2022-10-17T12:10:45.141Z,63.80
2022-10-17T12:15:47.992Z,63.38
2022-10-17T12:21:00.539Z,63.32
2022-10-17T12:26:05.883Z,61.95
2022-10-17T12:31:23.166Z,61.20
2022-10-17T12:36:28.088Z,59.88
2022-10-17T12:41:40.072Z,59.13
2022-10-17T12:46:57.454Z,59.26
2022-10-17T12:52:22.229Z,59.16
2022-10-17T12:58:00.845Z,60.00
2022-10-17T13:03:23.059Z,60.11
2022-10-17T13:08:34.303Z,59.47
2022-10-17T13:14:05.505Z,59.61
2022-10-17T13:19:18.979Z,59.75
2022-10-17T13:24:37.194Z,59.87
2022-10-17T13:29:44.139Z,60.10
2022-10-17T13:34:46.806Z,60.42
2022-10-17T13:39:55.610Z,60.24
2022-10-17T13:45:00.886Z,60.55
2022-10-17T13:50:09.459Z,60.58
2022-10-17T13:55:22.024Z,60.94
2022-10-17T14:00:25.073Z,61.18
2022-10-17T14:05:27.993Z,61.79
2022-10-17T14:10:32.572Z,62.47
2022-10-17T14:15:36.447Z,62.97
2022-10-17T14:26:13.993Z,63.33
2022-10-17T14:31:30.178Z,63.55
2022-10-17T14:36:38.470Z,63.99
2022-10-17T14:41:45.973Z,64.68
2022-10-17T14:46:52.689Z,65.11
2022-10-17T14:52:18.627Z,65.97
2022-10-17T14:57:31.588Z,66.69
2022-10-17T15:02:34.935Z,67.02
2022-10-17T15:07:37.689Z,67.35
2022-10-17T15:12:47.917Z,67.86
2022-10-17T15:18:00.578Z,68.54
2022-10-17T15:23:03.390Z,69.06
2022-10-17T15:28:06.135Z,69.27
2022-10-17T15:33:09.370Z,69.89
2022-10-17T15:38:13.840Z,70.45
2022-10-17T15:43:19.842Z,70.90
2022-10-17T15:48:28.299Z,71.35
2022-10-17T15:53:31.593Z,71.67
2022-10-17T15:58:37.609Z,72.10
2022-10-17T16:03:40.485Z,72.75
2022-10-17T16:08:43.157Z,73.20
2022-10-17T16:13:51.697Z,73.43
2022-10-17T16:18:54.637Z,73.80
2022-10-17T16:23:57.341Z,74.12
2022-10-17T16:29:03.591Z,74.14
2022-10-17T16:34:06.879Z,74.26
2022-10-17T16:39:09.632Z,74.56
2022-10-17T16:44:15.601Z,74.76
2022-10-17T16:49:18.373Z,74.93
2022-10-17T16:54:21.804Z,75.30
2022-10-17T16:59:24.523Z,76.00
2022-10-17T17:04:27.262Z,76.26
2022-10-17T17:09:30.039Z,76.20
2022-10-17T17:14:32.778Z,76.48
2022-10-17T17:19:35.494Z,76.86
2022-10-17T17:24:38.212Z,76.93
2022-10-17T17:29:40.984Z,77.06
2022-10-17T17:34:43.693Z,77.15
2022-10-17T17:39:46.401Z,77.48
2022-10-17T17:44:49.741Z,77.59
2022-10-17T17:49:52.410Z,77.88
2022-10-17T17:54:55.682Z,78.23
2022-10-17T17:59:58.501Z,78.44
2022-10-17T18:05:01.456Z,78.60
2022-10-17T18:10:05.276Z,78.91
2022-10-17T18:15:08.837Z,79.22
2022-10-17T18:20:12.125Z,79.81
2022-10-17T18:25:15.044Z,79.84
2022-10-17T18:30:19.233Z,79.80
2022-10-17T18:35:24.421Z,80.11
2022-10-17T18:40:28.275Z,80.59
2022-10-17T18:45:31.083Z,80.94
2022-10-17T18:50:34.266Z,81.05
2022-10-17T18:55:39.690Z,81.32
2022-10-17T19:00:42.480Z,81.54
2022-10-17T19:05:46.336Z,81.90
2022-10-17T19:10:49.084Z,82.07
2022-10-17T19:15:51.717Z,82.09
2022-10-17T19:20:54.360Z,82.33
2022-10-17T19:26:12.000Z,82.36
2022-10-17T19:31:16.996Z,82.74
2022-10-17T19:36:22.188Z,82.94
2022-10-17T19:41:27.093Z,83.15
2022-10-17T19:46:31.103Z,83.42
2022-10-17T19:51:34.018Z,83.73
2022-10-17T19:56:38.047Z,83.73
2022-10-17T20:01:41.463Z,83.74
2022-10-17T20:06:44.334Z,83.91
2022-10-17T20:11:49.112Z,84.14
2022-10-17T20:16:52.276Z,84.43
2022-10-17T20:21:54.962Z,84.57
2022-10-17T20:26:57.663Z,84.82
2022-10-17T20:32:00.955Z,84.92
2022-10-17T20:37:04.374Z,85.07
2022-10-17T20:42:08.999Z,85.03
2022-10-17T20:47:16.164Z,85.33
2022-10-17T20:52:19.169Z,85.27
2022-10-17T20:57:21.900Z,85.30
2022-10-17T21:02:24.531Z,85.29
2022-10-17T21:07:27.267Z,85.25
2022-10-17T21:12:36.635Z,85.46
2022-10-17T21:17:45.953Z,85.46
2022-10-17T21:22:48.610Z,85.80
2022-10-17T21:27:54.504Z,85.64
2022-10-17T21:32:57.427Z,85.60
2022-10-17T21:38:00.535Z,85.91
2022-10-17T21:43:03.442Z,86.27
2022-10-17T21:48:14.482Z,85.94
2022-10-17T21:53:37.635Z,85.90
2022-10-17T21:58:40.881Z,86.10
2022-10-17T22:03:46.910Z,86.20
2022-10-17T22:08:50.034Z,86.45
2022-10-17T22:14:03.762Z,86.48
2022-10-17T22:19:07.599Z,86.58
2022-10-17T22:24:12.924Z,86.51
2022-10-17T22:29:15.613Z,86.58
2022-10-17T22:34:18.649Z,86.75
2022-10-17T22:39:21.325Z,86.49
2022-10-17T22:44:23.976Z,86.98
2022-10-17T22:49:26.693Z,87.13
2022-10-17T22:54:29.517Z,87.28
2022-10-17T22:59:32.458Z,87.55
2022-10-17T23:04:35.320Z,87.58
2022-10-17T23:09:39.054Z,87.89
2022-10-17T23:14:43.632Z,88.06
2022-10-17T23:19:46.379Z,88.03
2022-10-17T23:24:49.035Z,88.10
2022-10-17T23:29:51.693Z,88.11
2022-10-17T23:34:54.362Z,88.24
2022-10-17T23:39:57.085Z,87.90
2022-10-17T23:44:59.770Z,88.04
2022-10-17T23:50:02.723Z,88.13
2022-10-17T23:55:06.177Z,88.25
